createdAt,value
2022-12-25T00:02:23.475Z,100541.34
2022-12-25T00:04:51.292Z,100543.78
2022-12-25T00:07:19.055Z,100548.00
2022-12-25T00:09:46.818Z,100547.94
2022-12-25T00:12:16.153Z,100555.38
2022-12-25T00:14:44.034Z,100556.00
2022-12-25T00:17:11.794Z,100556.88
2022-12-25T00:19:39.660Z,100548.31
2022-12-25T00:22:07.580Z,100538.13
2022-12-25T00:24:35.294Z,100540.47
2022-12-25T00:27:03.115Z,100544.56
2022-12-25T00:29:32.219Z,100532.69
2022-12-25T00:32:00.485Z,100542.38
2022-12-25T00:34:28.410Z,100542.50
2022-12-25T00:36:56.250Z,100536.50
2022-12-25T00:39:24.360Z,100524.22
2022-12-25T00:42:10.781Z,100528.41
2022-12-25T00:44:39.865Z,100522.56
2022-12-25T00:47:07.668Z,100522.66
2022-12-25T00:49:35.567Z,100533.88
2022-12-25T00:52:03.905Z,100529.59
2022-12-25T00:54:31.712Z,100529.50
2022-12-25T00:56:59.647Z,100530.47
2022-12-25T00:59:31.223Z,100520.28
2022-12-25T01:02:21.387Z,100521.78
2022-12-25T01:04:50.728Z,100522.66
2022-12-25T01:07:19.286Z,100538.22
2022-12-25T01:10:06.099Z,100531.59
2022-12-25T01:12:38.461Z,100530.19
2022-12-25T01:15:09.267Z,100532.97
2022-12-25T01:17:38.506Z,100534.06
2022-12-25T01:20:08.098Z,100536.03
2022-12-25T01:22:36.077Z,100522.50
2022-12-25T01:25:05.600Z,100517.56
2022-12-25T01:27:33.690Z,100521.44
2022-12-25T01:30:01.601Z,100532.22
2022-12-25T01:32:29.413Z,100525.84
2022-12-25T01:34:58.580Z,100525.34
2022-12-25T01:37:26.365Z,100526.50
2022-12-25T01:39:54.119Z,100519.00
2022-12-25T01:42:26.157Z,100514.03
2022-12-25T01:45:37.661Z,100515.13
2022-12-25T01:48:14.641Z,100518.97
2022-12-25T01:50:49.596Z,100517.75
2022-12-25T01:53:17.727Z,100533.63
2022-12-25T01:55:50.991Z,100537.06
2022-12-25T01:58:19.132Z,100527.00
2022-12-25T02:00:47.324Z,100525.28
2022-12-25T02:03:15.510Z,100523.81
2022-12-25T02:05:47.007Z,100525.91
2022-12-25T02:08:19.511Z,100524.31
2022-12-25T02:10:47.607Z,100527.63
2022-12-25T02:13:19.446Z,100525.06
2022-12-25T02:16:01.233Z,100534.47
2022-12-25T02:18:40.066Z,100528.66
2022-12-25T02:21:57.877Z,100528.13
2022-12-25T02:24:53.123Z,100526.78
2022-12-25T02:27:54.819Z,100525.50
2022-12-25T02:30:23.997Z,100525.53
2022-12-25T02:33:18.966Z,100518.28
2022-12-25T02:35:52.138Z,100524.06
2022-12-25T02:38:29.743Z,100521.59
2022-12-25T02:41:03.835Z,100511.28
2022-12-25T02:43:58.177Z,100525.00
2022-12-25T02:46:51.543Z,100527.25
2022-12-25T02:49:43.379Z,100531.03
2022-12-25T02:52:35.759Z,100524.16
2022-12-25T02:55:30.156Z,100532.13
2022-12-25T02:58:23.036Z,100534.94
2022-12-25T03:01:18.214Z,100533.34
2022-12-25T03:04:11.964Z,100528.13
2022-12-25T03:06:55.492Z,100526.47
2022-12-25T03:09:47.887Z,100526.38
2022-12-25T03:12:26.448Z,100525.50
2022-12-25T03:15:13.006Z,100524.69
2022-12-25T03:17:41.052Z,100527.28
2022-12-25T03:20:29.897Z,100530.06
2022-12-25T03:23:16.979Z,100528.38
2022-12-25T03:26:03.719Z,100525.84
2022-12-25T03:28:31.609Z,100518.97
2022-12-25T03:31:13.340Z,100516.53
2022-12-25T03:34:38.816Z,100517.63
2022-12-25T03:37:26.386Z,100499.63
2022-12-25T03:40:24.197Z,100509.84
2022-12-25T03:43:20.351Z,100497.69
2022-12-25T03:46:15.440Z,100497.78
2022-12-25T03:49:10.027Z,100487.44
2022-12-25T03:52:01.849Z,100479.59
2022-12-25T03:54:53.783Z,100484.91
2022-12-25T03:57:40.162Z,100472.75
2022-12-25T04:00:28.421Z,100464.69
2022-12-25T04:03:15.050Z,100464.06
2022-12-25T04:06:12.424Z,100454.44
2022-12-25T04:08:58.596Z,100464.91
2022-12-25T04:11:45.984Z,100468.22
2022-12-25T04:14:51.133Z,100457.63
2022-12-25T04:17:37.520Z,100457.38
2022-12-25T04:20:26.389Z,100454.88
2022-12-25T04:23:12.648Z,100449.00
2022-12-25T04:25:59.045Z,100460.06
2022-12-25T04:28:46.701Z,100452.59
2022-12-25T04:31:33.182Z,100447.59
2022-12-25T04:34:19.677Z,100459.34
2022-12-25T04:36:47.493Z,100461.22
2022-12-25T04:39:15.315Z,100462.31
2022-12-25T04:41:43.122Z,100464.00
2022-12-25T04:44:12.618Z,100465.72
2022-12-25T04:46:40.519Z,100472.75
2022-12-25T04:49:08.337Z,100468.59
2022-12-25T04:51:37.074Z,100459.03
2022-12-25T04:54:05.348Z,100460.03
2022-12-25T04:56:33.599Z,100468.47
2022-12-25T04:59:01.525Z,100472.06
2022-12-25T05:01:30.750Z,100474.91
2022-12-25T05:03:58.818Z,100477.59
2022-12-25T05:06:26.857Z,100482.09
2022-12-25T05:08:54.768Z,100476.16
2022-12-25T05:11:22.651Z,100473.22
2022-12-25T05:13:50.534Z,100467.22
2022-12-25T05:16:20.894Z,100476.00
2022-12-25T05:18:52.010Z,100479.75
2022-12-25T05:21:20.457Z,100476.25
2022-12-25T05:23:50.683Z,100478.34
2022-12-25T05:26:23.031Z,100472.44
2022-12-25T05:28:51.186Z,100468.97
2022-12-25T05:31:19.274Z,100462.94
2022-12-25T05:33:51.554Z,100458.41
2022-12-25T05:36:19.820Z,100464.53
2022-12-25T05:38:47.693Z,100464.53
2022-12-25T05:41:15.521Z,100460.22
2022-12-25T05:43:43.347Z,100461.28
2022-12-25T05:46:13.706Z,100455.22
2022-12-25T05:48:41.517Z,100444.94
2022-12-25T05:51:14.330Z,100447.69
2022-12-25T05:53:43.434Z,100444.22
2022-12-25T05:56:11.326Z,100436.38
2022-12-25T05:58:41.158Z,100432.06
2022-12-25T06:01:15.655Z,100426.06
2022-12-25T06:03:43.697Z,100435.38
2022-12-25T06:06:13.836Z,100429.06
2022-12-25T06:08:42.005Z,100429.84
2022-12-25T06:11:12.528Z,100426.13
2022-12-25T06:13:40.616Z,100440.72
2022-12-25T06:16:11.812Z,100442.59
2022-12-25T06:18:45.451Z,100446.75
2022-12-25T06:21:15.926Z,100445.88
2022-12-25T06:23:44.556Z,100441.56
2022-12-25T06:26:16.059Z,100432.00
2022-12-25T06:28:44.686Z,100424.38
2022-12-25T06:31:16.193Z,100416.47
2022-12-25T06:33:44.643Z,100422.72
2022-12-25T06:36:17.801Z,100413.22
2022-12-25T06:38:46.218Z,100408.06
2022-12-25T06:41:17.211Z,100409.00
2022-12-25T06:43:49.281Z,100401.81
2022-12-25T06:46:17.882Z,100396.47
2022-12-25T06:48:49.719Z,100401.50
2022-12-25T06:51:21.728Z,100397.13
2022-12-25T06:53:51.740Z,100383.09
2022-12-25T06:56:23.918Z,100377.13
2022-12-25T06:58:55.214Z,100365.66
2022-12-25T07:01:27.414Z,100359.38
2022-12-25T07:03:59.870Z,100360.25
2022-12-25T07:06:29.417Z,100353.19
2022-12-25T07:08:57.435Z,100361.69
2022-12-25T07:11:26.248Z,100374.53
2022-12-25T07:13:54.033Z,100368.56
2022-12-25T07:16:21.983Z,100377.78
2022-12-25T07:18:49.774Z,100390.72
2022-12-25T07:21:20.257Z,100391.53
2022-12-25T07:23:50.259Z,100390.44
2022-12-25T07:26:18.095Z,100380.84
2022-12-25T07:28:45.869Z,100367.06
2022-12-25T07:31:16.828Z,100363.84
2022-12-25T07:33:44.895Z,100366.28
2022-12-25T07:36:14.262Z,100361.03
2022-12-25T07:38:42.715Z,100355.84
2022-12-25T07:41:13.054Z,100346.56
2022-12-25T07:43:41.375Z,100350.97
2022-12-25T07:46:10.726Z,100346.66
2022-12-25T07:48:39.013Z,100346.75
2022-12-25T07:51:10.951Z,100357.97
2022-12-25T07:53:39.711Z,100355.53
2022-12-25T07:56:12.699Z,100356.16
2022-12-25T07:58:41.376Z,100357.09
2022-12-25T08:01:14.910Z,100353.56
2022-12-25T08:03:42.952Z,100351.03
2022-12-25T08:06:11.870Z,100367.50
2022-12-25T08:08:40.281Z,100371.94
2022-12-25T08:11:09.881Z,100378.06
2022-12-25T08:13:39.166Z,100374.81
2022-12-25T08:16:10.596Z,100368.22
2022-12-25T08:18:39.605Z,100355.38
2022-12-25T08:21:11.138Z,100358.25
2022-12-25T08:23:42.230Z,100358.31
2022-12-25T08:26:14.023Z,100357.69
2022-12-25T08:28:43.284Z,100348.31
2022-12-25T08:31:19.142Z,100347.69
2022-12-25T08:33:48.201Z,100354.00
2022-12-25T08:36:17.063Z,100359.94
2022-12-25T08:38:46.097Z,100363.09
2022-12-25T08:41:15.883Z,100373.53
2022-12-25T08:43:45.081Z,100354.47
2022-12-25T08:46:13.269Z,100338.59
2022-12-25T08:48:42.766Z,100344.84
2022-12-25T08:51:14.734Z,100357.06
2022-12-25T08:53:42.938Z,100378.88
2022-12-25T08:56:11.711Z,100385.88
2022-12-25T08:58:39.955Z,100392.00
2022-12-25T09:01:09.226Z,100397.31
2022-12-25T09:03:37.403Z,100389.72
2022-12-25T09:06:08.622Z,100385.16
2022-12-25T09:08:41.121Z,100361.38
2022-12-25T09:11:15.308Z,100358.47
2022-12-25T09:13:43.626Z,100347.06
2022-12-25T09:16:15.871Z,100336.56
2022-12-25T09:18:43.837Z,100337.34
2022-12-25T09:21:15.271Z,100324.22
2022-12-25T09:23:44.567Z,100327.56
2022-12-25T09:26:15.865Z,100333.03
2022-12-25T09:28:50.732Z,100337.41
2022-12-25T09:31:23.041Z,100325.19
2022-12-25T09:33:51.681Z,100321.75
2022-12-25T09:36:21.277Z,100319.13
2022-12-25T09:38:49.185Z,100326.19
2022-12-25T09:41:27.052Z,100331.50
2022-12-25T09:44:02.837Z,100353.53
2022-12-25T09:46:41.362Z,100345.16
2022-12-25T09:49:21.427Z,100332.38
2022-12-25T09:51:56.029Z,100334.22
2022-12-25T09:54:39.800Z,100326.97
2022-12-25T09:57:12.159Z,100331.66
2022-12-25T09:59:43.013Z,100318.94
2022-12-25T10:02:36.084Z,100324.34
2022-12-25T10:05:25.565Z,100328.63
2022-12-25T10:08:08.265Z,100337.44
2022-12-25T10:10:50.906Z,100338.16
2022-12-25T10:13:49.433Z,100351.91
2022-12-25T10:16:29.444Z,100341.47
2022-12-25T10:19:12.828Z,100338.03
2022-12-25T10:21:42.081Z,100330.19
2022-12-25T10:24:28.350Z,100320.59
2022-12-25T10:26:57.185Z,100314.25
2022-12-25T10:29:32.646Z,100322.09
2022-12-25T10:32:00.805Z,100308.16
2022-12-25T10:34:30.208Z,100314.19
2022-12-25T10:36:58.839Z,100315.00
2022-12-25T10:39:26.842Z,100308.28
2022-12-25T10:42:17.723Z,100301.47
2022-12-25T10:44:56.587Z,100291.16
2022-12-25T10:47:28.301Z,100286.03
2022-12-25T10:49:59.114Z,100284.13
2022-12-25T10:52:29.585Z,100278.78
2022-12-25T10:54:57.540Z,100282.28
2022-12-25T10:57:27.855Z,100300.63
2022-12-25T10:59:56.995Z,100296.41
2022-12-25T11:02:28.619Z,100292.09
2022-12-25T11:05:05.492Z,100296.56
2022-12-25T11:07:46.953Z,100291.16
2022-12-25T11:10:22.913Z,100270.25
2022-12-25T11:12:53.201Z,100283.91
2022-12-25T11:15:37.668Z,100272.56
2022-12-25T11:18:19.867Z,100269.91
2022-12-25T11:20:51.756Z,100258.72
2022-12-25T11:23:22.689Z,100261.38
2022-12-25T11:25:58.291Z,100254.63
2022-12-25T11:28:28.602Z,100252.00
2022-12-25T11:31:02.776Z,100248.53
2022-12-25T11:33:36.664Z,100244.09
2022-12-25T11:36:17.316Z,100225.97
2022-12-25T11:38:45.496Z,100213.56
2022-12-25T11:41:20.576Z,100214.66
2022-12-25T11:43:56.186Z,100203.41
2022-12-25T11:46:32.813Z,100194.72
2022-12-25T11:49:07.285Z,100190.56
2022-12-25T11:51:44.657Z,100198.38
2022-12-25T11:54:22.588Z,100192.06
2022-12-25T11:56:51.104Z,100197.28
2022-12-25T11:59:27.642Z,100201.50
2022-12-25T12:02:03.442Z,100201.66
2022-12-25T12:04:42.649Z,100199.31
2022-12-25T12:07:23.627Z,100191.66
2022-12-25T12:10:03.510Z,100182.03
2022-12-25T12:12:49.003Z,100183.84
2022-12-25T12:15:28.282Z,100169.34
2022-12-25T12:18:08.835Z,100160.38
2022-12-25T12:20:37.683Z,100157.66
2022-12-25T12:23:16.686Z,100149.09
2022-12-25T12:25:45.781Z,100136.50
2022-12-25T12:28:24.232Z,100128.75
2022-12-25T12:31:03.506Z,100140.06
2022-12-25T12:33:38.235Z,100129.66
2022-12-25T12:36:11.324Z,100119.34
2022-12-25T12:38:44.691Z,100122.91
2022-12-25T12:41:14.586Z,100110.06
2022-12-25T12:43:46.951Z,100111.66
2022-12-25T12:46:29.796Z,100109.16
2022-12-25T12:49:19.480Z,100107.63
2022-12-25T12:51:48.161Z,100098.13
2022-12-25T12:54:22.254Z,100101.47
2022-12-25T12:56:58.718Z,100091.22
2022-12-25T12:59:36.835Z,100088.59
2022-12-25T13:02:33.956Z,100079.28
2022-12-25T13:05:05.812Z,100076.53
2022-12-25T13:07:57.415Z,100072.16
2022-12-25T13:10:34.618Z,100083.19
2022-12-25T13:13:12.521Z,100081.47
2022-12-25T13:15:45.771Z,100070.09
2022-12-25T13:18:14.849Z,100067.59
2022-12-25T13:20:54.847Z,100071.28
2022-12-25T13:23:27.935Z,100073.19
2022-12-25T13:25:59.937Z,100068.63
2022-12-25T13:28:30.479Z,100073.91
2022-12-25T13:31:11.275Z,100074.88
2022-12-25T13:33:40.895Z,100074.19
2022-12-25T13:36:12.558Z,100066.25
2022-12-25T13:38:45.815Z,100071.53
2022-12-25T13:41:39.219Z,100058.50
2022-12-25T13:44:17.512Z,100057.63
2022-12-25T13:46:45.712Z,100042.09
2022-12-25T13:49:16.893Z,100044.69
2022-12-25T13:51:46.661Z,100043.63
2022-12-25T13:54:17.931Z,100034.88
2022-12-25T13:56:51.537Z,100031.53
2022-12-25T13:59:22.953Z,100021.78
2022-12-25T14:01:54.107Z,100028.78
2022-12-25T14:04:24.245Z,100031.31
2022-12-25T14:06:53.985Z,100033.25
2022-12-25T14:09:23.319Z,100033.25
2022-12-25T14:11:52.997Z,100034.13
2022-12-25T14:14:24.242Z,100031.59
2022-12-25T14:16:57.037Z,100036.66
2022-12-25T14:19:28.992Z,100038.34
2022-12-25T14:22:04.354Z,100036.91
2022-12-25T14:24:34.835Z,100030.91
2022-12-25T14:27:07.313Z,100028.22
2022-12-25T14:29:40.048Z,100017.75
2022-12-25T14:32:15.570Z,100024.56
2022-12-25T14:34:46.306Z,100019.41
2022-12-25T14:37:20.760Z,100019.53
2022-12-25T14:39:57.181Z,100007.34
2022-12-25T14:42:29.975Z,100004.84
2022-12-25T14:45:03.410Z,100005.88
2022-12-25T14:47:33.608Z,100007.72
2022-12-25T14:50:01.530Z,100001.78
2022-12-25T14:52:39.202Z,99998.28
2022-12-25T14:55:20.101Z,99993.97
2022-12-25T14:57:55.488Z,99998.41
2022-12-25T15:00:29.584Z,99995.50
2022-12-25T15:03:00.385Z,99991.13
2022-12-25T15:05:33.322Z,99993.00
2022-12-25T15:08:24.234Z,99977.44
2022-12-25T15:11:00.356Z,99985.19
2022-12-25T15:13:32.349Z,99971.31
2022-12-25T15:16:08.903Z,99976.41
2022-12-25T15:18:41.364Z,99966.81
2022-12-25T15:21:16.694Z,99970.19
2022-12-25T15:23:44.844Z,99969.41
2022-12-25T15:26:14.626Z,99984.19
2022-12-25T15:28:43.774Z,99969.53
2022-12-25T15:31:22.105Z,99961.63
2022-12-25T15:33:50.513Z,99981.59
2022-12-25T15:36:18.348Z,99973.03
2022-12-25T15:38:46.441Z,99967.16
2022-12-25T15:41:37.533Z,99968.00
2022-12-25T15:44:07.902Z,99954.13
2022-12-25T15:46:35.769Z,99949.09
2022-12-25T15:49:03.613Z,99955.00
2022-12-25T15:51:31.861Z,99961.22
2022-12-25T15:53:59.754Z,99943.06
2022-12-25T15:56:29.678Z,99943.91
2022-12-25T15:58:57.452Z,99939.50
2022-12-25T16:01:26.676Z,99941.84
2022-12-25T16:03:54.677Z,99938.50
2022-12-25T16:06:22.427Z,99928.16
2022-12-25T16:08:50.147Z,99935.84
2022-12-25T16:11:17.903Z,99932.53
2022-12-25T16:13:45.630Z,99944.72
2022-12-25T16:16:13.504Z,99941.34
2022-12-25T16:18:47.436Z,99943.31
2022-12-25T16:21:19.811Z,99939.88
2022-12-25T16:23:48.021Z,99944.16
2022-12-25T16:26:16.281Z,99944.22
2022-12-25T16:28:44.307Z,99946.06
2022-12-25T16:31:12.332Z,99939.31
2022-12-25T16:33:40.300Z,99928.94
2022-12-25T16:36:09.828Z,99931.50
2022-12-25T16:38:38.296Z,99918.53
2022-12-25T16:41:06.029Z,99911.47
2022-12-25T16:47:34.374Z,99930.28
2022-12-25T16:50:03.885Z,99921.72
2022-12-25T16:52:34.677Z,99923.38
2022-12-25T16:55:04.002Z,99919.91
2022-12-25T16:57:33.151Z,99915.59
2022-12-25T17:00:01.159Z,99915.44
2022-12-25T17:02:29.162Z,99921.47
2022-12-25T17:04:57.163Z,99915.41
2022-12-25T17:07:24.922Z,99912.84
2022-12-25T17:09:54.092Z,99901.56
2022-12-25T17:12:21.849Z,99902.44
2022-12-25T17:14:49.540Z,99905.97
2022-12-25T17:17:17.338Z,99903.59
2022-12-25T17:19:45.354Z,99884.63
2022-12-25T17:22:13.230Z,99889.47
2022-12-25T17:24:41.475Z,99895.31
2022-12-25T17:27:11.171Z,99889.28
2022-12-25T17:29:39.845Z,99882.47
2022-12-25T17:32:08.524Z,99886.91
2022-12-25T17:34:36.627Z,99884.31
2022-12-25T17:37:05.172Z,99882.88
2022-12-25T17:39:33.133Z,99883.97
2022-12-25T17:42:01.000Z,99876.88
2022-12-25T17:44:30.127Z,99873.47
2022-12-25T17:46:57.961Z,99869.31
2022-12-25T17:49:26.280Z,99863.25
2022-12-25T17:51:56.023Z,99869.97
2022-12-25T17:54:23.806Z,99870.13
2022-12-25T17:56:51.669Z,99865.06
2022-12-25T17:59:20.478Z,99873.72
2022-12-25T18:01:49.662Z,99865.91
2022-12-25T18:04:18.111Z,99864.94
2022-12-25T18:06:46.372Z,99860.56
2022-12-25T18:09:14.102Z,99856.28
2022-12-25T18:11:43.455Z,99860.59
2022-12-25T18:14:14.997Z,99862.41
2022-12-25T18:16:45.104Z,99867.56
2022-12-25T18:19:15.922Z,99875.38
2022-12-25T18:21:43.867Z,99878.06
2022-12-25T18:24:12.510Z,99870.31
2022-12-25T18:26:40.428Z,99864.16
2022-12-25T18:29:08.152Z,99863.38
2022-12-25T18:31:36.545Z,99849.50
2022-12-25T18:34:04.654Z,99852.13
2022-12-25T18:36:34.002Z,99842.69
2022-12-25T18:39:01.948Z,99851.31
2022-12-25T18:41:30.578Z,99850.47
2022-12-25T18:43:59.809Z,99846.09
2022-12-25T18:46:27.956Z,99849.50
2022-12-25T18:48:57.867Z,99859.91
2022-12-25T18:51:29.849Z,99857.28
2022-12-25T18:54:04.304Z,99849.53
2022-12-25T18:56:32.443Z,99844.34
2022-12-25T18:59:00.633Z,99845.19
2022-12-25T19:01:28.645Z,99837.44
2022-12-25T19:04:04.381Z,99834.84
2022-12-25T19:06:33.948Z,99837.41
2022-12-25T19:09:08.955Z,99831.31
2022-12-25T19:11:46.084Z,99835.59
2022-12-25T19:14:15.134Z,99839.97
2022-12-25T19:16:43.214Z,99841.72
2022-12-25T19:19:11.176Z,99846.03
2022-12-25T19:21:38.937Z,99848.66
2022-12-25T19:24:07.610Z,99849.63
2022-12-25T19:26:35.996Z,99839.25
2022-12-25T19:29:05.100Z,99835.88
2022-12-25T19:31:32.911Z,99826.38
2022-12-25T19:34:00.829Z,99831.53
2022-12-25T19:36:28.610Z,99837.66
2022-12-25T19:38:56.515Z,99839.41
2022-12-25T19:41:24.371Z,99848.75
2022-12-25T19:43:52.514Z,99840.25
2022-12-25T19:46:26.002Z,99844.50
2022-12-25T19:48:55.862Z,99847.97
2022-12-25T19:51:26.703Z,99844.47
2022-12-25T19:53:58.853Z,99849.69
2022-12-25T19:56:28.571Z,99849.81
2022-12-25T19:58:57.404Z,99840.25
2022-12-25T20:01:29.280Z,99860.25
2022-12-25T20:03:57.453Z,99853.28
2022-12-25T20:06:28.676Z,99848.06
2022-12-25T20:08:59.561Z,99849.78
2022-12-25T20:11:30.649Z,99860.13
2022-12-25T20:13:59.657Z,99856.72
2022-12-25T20:16:29.018Z,99862.78
2022-12-25T20:18:58.622Z,99858.59
2022-12-25T20:21:29.957Z,99871.47
2022-12-25T20:23:58.830Z,99853.47
2022-12-25T20:26:29.958Z,99860.47
2022-12-25T20:28:58.980Z,99864.63
2022-12-25T20:31:30.885Z,99869.00
2022-12-25T20:34:04.036Z,99867.38
2022-12-25T20:36:36.828Z,99861.41
2022-12-25T20:39:09.640Z,99855.31
2022-12-25T20:41:38.753Z,99863.00
2022-12-25T20:44:09.803Z,99863.97
2022-12-25T20:46:39.119Z,99870.09
2022-12-25T20:49:07.263Z,99865.66
2022-12-25T20:51:35.461Z,99870.09
2022-12-25T20:54:07.619Z,99881.38
2022-12-25T20:56:36.559Z,99874.47
2022-12-25T20:59:04.396Z,99879.72
2022-12-25T21:01:32.526Z,99883.16
2022-12-25T21:04:01.976Z,99891.88
2022-12-25T21:06:29.811Z,99889.22
2022-12-25T21:08:57.685Z,99888.44
2022-12-25T21:11:26.273Z,99892.75
2022-12-25T21:13:53.963Z,99891.91
2022-12-25T21:16:22.987Z,99893.59
2022-12-25T21:18:53.519Z,99895.19
2022-12-25T21:21:23.701Z,99883.97
2022-12-25T21:23:51.605Z,99895.09
2022-12-25T21:26:23.314Z,99895.19
2022-12-25T21:28:54.981Z,99898.56
2022-12-25T21:31:24.487Z,99890.69
2022-12-25T21:33:57.521Z,99895.03
2022-12-25T21:36:29.310Z,99889.81
2022-12-25T21:39:00.047Z,99886.31
2022-12-25T21:41:30.545Z,99884.59
2022-12-25T21:43:59.301Z,99873.28
2022-12-25T21:46:28.816Z,99882.91
2022-12-25T21:48:58.377Z,99891.53
2022-12-25T21:51:49.653Z,99901.00
2022-12-25T21:54:19.898Z,99907.00
2022-12-25T21:56:49.316Z,99913.06
2022-12-25T21:59:21.101Z,99905.34
2022-12-25T22:01:50.712Z,99908.69
2022-12-25T22:04:21.779Z,99908.88
2022-12-25T22:07:10.406Z,99912.16
2022-12-25T22:09:38.255Z,99915.75
2022-12-25T22:12:31.943Z,99922.53
2022-12-25T22:15:02.799Z,99926.13
2022-12-25T22:17:52.213Z,99924.44
2022-12-25T22:20:24.367Z,99932.53
2022-12-25T22:22:54.485Z,99934.19
2022-12-25T22:25:24.032Z,99931.59
2022-12-25T22:27:52.866Z,99939.41
2022-12-25T22:30:23.778Z,99945.25
2022-12-25T22:32:52.234Z,99946.84
2022-12-25T22:35:22.866Z,99943.38
2022-12-25T22:37:51.171Z,99949.47
2022-12-25T22:40:20.956Z,99938.13
2022-12-25T22:42:49.136Z,99948.47
2022-12-25T22:45:17.269Z,99952.69
2022-12-25T22:47:45.053Z,99955.38
2022-12-25T22:50:15.048Z,99955.31
2022-12-25T22:52:45.596Z,99955.06
2022-12-25T22:55:17.257Z,99962.97
2022-12-25T22:57:46.389Z,99960.22
2022-12-25T23:00:14.644Z,99963.56
2022-12-25T23:02:42.926Z,99966.31
2022-12-25T23:05:11.024Z,99969.81
2022-12-25T23:07:39.082Z,99965.66
2022-12-25T23:10:08.610Z,99963.06
2022-12-25T23:12:55.105Z,99946.81
2022-12-25T23:15:24.414Z,99955.38
2022-12-25T23:18:11.521Z,99957.88
2022-12-25T23:20:57.583Z,99955.31
2022-12-25T23:23:43.750Z,99960.47
2022-12-25T23:26:13.583Z,99953.59
2022-12-25T23:29:02.115Z,99951.00
2022-12-25T23:31:35.339Z,99955.47
2022-12-25T23:34:05.221Z,99951.03
2022-12-25T23:36:33.825Z,99964.69
2022-12-25T23:39:09.171Z,99957.72
2022-12-25T23:41:38.820Z,99951.75
2022-12-25T23:44:06.888Z,99957.69
2022-12-25T23:46:36.458Z,99955.25
2022-12-25T23:49:05.116Z,99949.84
2022-12-25T23:51:34.964Z,99956.81
2022-12-25T23:54:06.381Z,99953.34
2022-12-25T23:56:36.100Z,99953.44
2022-12-25T23:59:04.579Z,99945.56
